createdAt,value
2019-02-05T00:01:03.059Z,84.90
2019-02-05T00:03:32.915Z,84.80
2019-02-05T00:06:02.955Z,84.70
2019-02-05T00:08:32.604Z,84.66
2019-02-05T00:11:02.449Z,84.66
2019-02-05T00:13:32.109Z,84.64
2019-02-05T00:16:01.800Z,84.68
2019-02-05T00:18:31.509Z,84.86
2019-02-05T00:21:02.014Z,85.03
2019-02-05T00:23:31.770Z,85.12
2019-02-05T00:26:06.275Z,85.30
2019-02-05T00:28:33.102Z,85.37
2019-02-05T00:31:02.785Z,85.27
2019-02-05T00:33:32.454Z,85.13
2019-02-05T00:36:02.238Z,84.96
2019-02-05T00:38:32.169Z,84.84
2019-02-05T00:41:01.785Z,84.71
2019-02-05T00:43:31.511Z,84.75
2019-02-05T00:46:01.137Z,84.80
2019-02-05T00:48:31.237Z,84.82
2019-02-05T00:51:00.788Z,84.81
2019-02-05T00:53:30.478Z,84.73
2019-02-05T00:56:00.137Z,84.73
2019-02-05T00:58:29.783Z,84.73
2019-02-05T01:00:59.540Z,84.75
2019-02-05T01:03:29.161Z,84.68
2019-02-05T01:05:58.740Z,84.64
2019-02-05T01:08:28.730Z,84.69
2019-02-05T01:10:58.482Z,84.61
2019-02-05T01:13:28.170Z,84.64
2019-02-05T01:15:59.117Z,84.65
2019-02-05T01:18:28.772Z,84.67
2019-02-05T01:20:58.796Z,84.54
2019-02-05T01:23:28.412Z,84.26
2019-02-05T01:25:58.011Z,84.06
2019-02-05T01:28:27.719Z,83.97
2019-02-05T01:30:57.451Z,83.86
2019-02-05T01:33:27.097Z,83.77
2019-02-05T01:35:56.724Z,83.65
2019-02-05T01:38:26.430Z,83.51
2019-02-05T01:40:56.197Z,83.34
2019-02-05T01:43:25.822Z,83.21
2019-02-05T01:45:55.625Z,83.10
2019-02-05T01:48:25.562Z,82.95
2019-02-05T01:50:55.231Z,82.82
2019-02-05T01:53:25.051Z,82.79
2019-02-05T01:55:54.873Z,82.67
2019-02-05T01:58:24.467Z,82.49
2019-02-05T02:00:54.121Z,82.28
2019-02-05T02:03:24.237Z,82.20
2019-02-05T02:05:53.999Z,82.10
2019-02-05T02:08:23.822Z,82.02
2019-02-05T02:10:55.203Z,81.88
2019-02-05T02:13:24.910Z,81.83
2019-02-05T02:15:54.825Z,81.71
2019-02-05T02:18:24.834Z,81.63
2019-02-05T02:20:54.483Z,81.50
2019-02-05T02:23:24.338Z,81.40
2019-02-05T02:25:54.067Z,81.37
2019-02-05T02:28:24.406Z,81.34
2019-02-05T02:30:54.072Z,81.26
2019-02-05T02:33:23.747Z,81.18
2019-02-05T02:35:53.650Z,81.09
2019-02-05T02:38:23.518Z,81.04
2019-02-05T02:40:53.170Z,80.97
2019-02-05T02:43:22.686Z,80.90
2019-02-05T02:45:52.259Z,80.76
2019-02-05T02:48:21.747Z,80.64
2019-02-05T02:50:51.326Z,80.59
2019-02-05T02:53:20.867Z,80.49
2019-02-05T02:55:50.382Z,80.40
2019-02-05T02:58:19.943Z,80.30
2019-02-05T03:00:49.833Z,80.21
2019-02-05T03:03:19.363Z,80.14
2019-02-05T03:05:48.899Z,80.06
2019-02-05T03:08:18.417Z,80.00
2019-02-05T03:10:47.942Z,79.92
2019-02-05T03:13:17.810Z,79.84
2019-02-05T03:15:47.441Z,79.78
2019-02-05T03:18:17.146Z,79.69
2019-02-05T03:20:46.715Z,79.56
2019-02-05T03:23:16.227Z,79.47
2019-02-05T03:25:45.936Z,79.42
2019-02-05T03:28:15.457Z,79.32
2019-02-05T03:30:45.034Z,79.28
2019-02-05T03:33:14.552Z,79.20
2019-02-05T03:35:44.087Z,79.18
2019-02-05T03:38:13.693Z,79.15
2019-02-05T03:40:53.970Z,79.04
2019-02-05T03:43:23.485Z,78.97
2019-02-05T03:45:54.036Z,78.87
2019-02-05T03:48:24.030Z,78.79
2019-02-05T03:51:04.237Z,78.66
2019-02-05T03:53:47.185Z,78.54
2019-02-05T03:56:29.723Z,78.47
2019-02-05T03:59:26.519Z,78.42
2019-02-05T04:02:06.388Z,78.44
2019-02-05T04:05:11.868Z,78.34
2019-02-05T04:08:21.117Z,78.25
2019-02-05T04:11:19.476Z,78.12
2019-02-05T04:13:56.811Z,78.10
2019-02-05T04:16:56.280Z,78.05
2019-02-05T04:19:48.645Z,78.04
2019-02-05T04:22:46.728Z,78.03
2019-02-05T04:25:29.824Z,78.01
2019-02-05T04:28:12.430Z,78.06
2019-02-05T04:31:04.453Z,78.09
2019-02-05T04:33:43.922Z,78.14
2019-02-05T04:36:32.922Z,78.10
2019-02-05T04:39:21.601Z,78.07
2019-02-05T04:42:01.666Z,78.06
2019-02-05T04:44:38.841Z,78.20
2019-02-05T04:47:28.300Z,78.54
2019-02-05T04:50:08.572Z,79.00
2019-02-05T04:52:59.388Z,79.59
2019-02-05T04:56:06.065Z,80.13
2019-02-05T04:58:54.993Z,80.52
2019-02-05T05:01:43.585Z,80.86
2019-02-05T05:04:20.533Z,81.10
2019-02-05T05:07:12.502Z,81.45
2019-02-05T05:09:57.184Z,81.85
2019-02-05T05:12:27.660Z,82.15
2019-02-05T05:14:57.618Z,82.50
2019-02-05T05:17:27.158Z,82.80
2019-02-05T05:19:56.678Z,83.07
2019-02-05T05:22:26.292Z,83.41
2019-02-05T05:24:56.574Z,83.62
2019-02-05T05:27:27.031Z,83.79
2019-02-05T05:29:56.853Z,83.98
2019-02-05T05:32:26.597Z,83.98
2019-02-05T05:34:56.154Z,84.07
2019-02-05T05:37:25.714Z,84.17
2019-02-05T05:39:55.250Z,84.23
2019-02-05T05:42:26.833Z,84.28
2019-02-05T05:44:56.390Z,84.34
2019-02-05T05:47:25.924Z,84.31
2019-02-05T05:49:55.460Z,84.30
2019-02-05T05:52:24.985Z,84.33
2019-02-05T05:54:54.498Z,84.35
2019-02-05T05:57:24.037Z,84.42
2019-02-05T05:59:53.550Z,84.51
2019-02-05T06:02:23.100Z,84.45
2019-02-05T06:04:52.606Z,84.41
2019-02-05T06:07:22.150Z,84.35
2019-02-05T06:09:51.677Z,84.22
2019-02-05T06:12:21.212Z,84.15
2019-02-05T06:14:50.906Z,84.11
2019-02-05T06:17:20.465Z,84.06
2019-02-05T06:19:50.679Z,84.08
2019-02-05T06:22:20.166Z,84.00
2019-02-05T06:24:49.771Z,83.89
2019-02-05T06:27:19.471Z,83.78
2019-02-05T06:29:49.371Z,83.71
2019-02-05T06:32:18.890Z,83.71
2019-02-05T06:34:48.531Z,83.61
2019-02-05T06:37:18.136Z,83.51
2019-02-05T06:39:47.687Z,83.41
2019-02-05T06:42:24.497Z,83.19
2019-02-05T06:44:54.102Z,83.12
2019-02-05T06:47:23.632Z,83.02
2019-02-05T06:49:53.142Z,82.94
2019-02-05T06:52:22.685Z,82.77
2019-02-05T06:54:52.206Z,82.65
2019-02-05T06:57:21.734Z,82.58
2019-02-05T06:59:51.631Z,82.50
2019-02-05T07:02:21.302Z,82.42
2019-02-05T07:04:50.881Z,82.37
2019-02-05T07:07:20.411Z,82.22
2019-02-05T07:09:49.965Z,82.04
2019-02-05T07:12:19.471Z,81.88
2019-02-05T07:14:49.898Z,81.77
2019-02-05T07:17:19.421Z,81.61
2019-02-05T07:19:48.955Z,81.48
2019-02-05T07:22:18.511Z,81.36
2019-02-05T07:24:48.494Z,81.28
2019-02-05T07:27:18.009Z,81.15
2019-02-05T07:29:47.523Z,81.04
2019-02-05T07:32:17.077Z,80.96
2019-02-05T07:34:46.615Z,80.86
2019-02-05T07:37:16.213Z,80.78
2019-02-05T07:39:45.732Z,80.66
2019-02-05T07:42:15.282Z,80.57
2019-02-05T07:44:44.809Z,80.44
2019-02-05T07:47:14.350Z,80.30
2019-02-05T07:49:44.024Z,80.26
2019-02-05T07:52:13.839Z,80.15
2019-02-05T07:54:43.376Z,79.99
2019-02-05T07:57:12.899Z,79.89
2019-02-05T07:59:42.437Z,79.77
2019-02-05T08:02:12.042Z,79.66
2019-02-05T08:04:42.463Z,79.53
2019-02-05T08:07:12.091Z,79.40
2019-02-05T08:09:41.693Z,79.34
2019-02-05T08:12:11.551Z,79.25
2019-02-05T08:14:41.068Z,79.24
2019-02-05T08:17:10.619Z,79.13
2019-02-05T08:19:40.144Z,79.00
2019-02-05T08:22:09.769Z,78.83
2019-02-05T08:24:39.701Z,78.74
2019-02-05T08:27:09.486Z,78.69
2019-02-05T08:29:39.004Z,78.63
2019-02-05T08:32:08.523Z,78.54
2019-02-05T08:34:38.055Z,78.49
2019-02-05T08:37:07.738Z,78.37
2019-02-05T08:39:38.116Z,78.26
2019-02-05T08:42:07.876Z,78.18
2019-02-05T08:44:37.398Z,78.10
2019-02-05T08:47:06.937Z,78.02
2019-02-05T08:49:36.463Z,77.92
2019-02-05T08:52:06.062Z,77.85
2019-02-05T08:54:35.582Z,77.81
2019-02-05T08:57:05.277Z,77.70
2019-02-05T08:59:34.917Z,77.54
2019-02-05T09:02:04.541Z,77.36
2019-02-05T09:04:34.130Z,77.20
2019-02-05T09:07:03.688Z,77.02
2019-02-05T09:09:33.277Z,76.96
2019-02-05T09:12:03.651Z,76.88
2019-02-05T09:14:33.262Z,76.83
2019-02-05T09:17:02.831Z,76.81
2019-02-05T09:19:32.384Z,76.85
2019-02-05T09:22:01.971Z,76.77
2019-02-05T09:24:31.536Z,76.71
2019-02-05T09:27:01.122Z,76.66
2019-02-05T09:29:33.480Z,76.47
2019-02-05T09:32:02.014Z,76.15
2019-02-05T09:34:31.587Z,75.94
2019-02-05T09:37:01.471Z,75.72
2019-02-05T09:39:31.106Z,75.57
2019-02-05T09:42:00.749Z,75.40
2019-02-05T09:44:31.513Z,75.19
2019-02-05T09:47:01.235Z,75.12
2019-02-05T09:49:30.843Z,75.02
2019-02-05T09:52:00.403Z,74.87
2019-02-05T09:54:31.594Z,74.84
2019-02-05T09:57:01.263Z,74.82
2019-02-05T09:59:31.198Z,74.79
2019-02-05T10:02:00.858Z,74.76
2019-02-05T10:04:30.421Z,74.65
2019-02-05T10:07:00.070Z,74.60
2019-02-05T10:09:29.708Z,74.53
2019-02-05T10:11:59.936Z,74.54
2019-02-05T10:14:30.150Z,74.51
2019-02-05T10:16:59.718Z,74.52
2019-02-05T10:19:29.338Z,74.51
2019-02-05T10:21:59.069Z,74.54
2019-02-05T10:24:28.725Z,74.65
2019-02-05T10:26:58.448Z,74.66
2019-02-05T10:29:28.191Z,74.63
2019-02-05T10:31:58.139Z,74.62
2019-02-05T10:34:34.269Z,74.68
2019-02-05T10:36:59.160Z,74.75
2019-02-05T10:39:28.801Z,74.70
2019-02-05T10:41:58.529Z,74.67
2019-02-05T10:44:28.095Z,74.62
2019-02-05T10:46:58.113Z,74.49
2019-02-05T10:49:27.764Z,74.46
2019-02-05T10:51:57.329Z,74.41
2019-02-05T10:54:27.000Z,74.35
2019-02-05T10:56:56.593Z,74.33
2019-02-05T10:59:26.698Z,74.35
2019-02-05T11:01:56.638Z,74.32
2019-02-05T11:04:26.285Z,74.30
2019-02-05T11:06:55.883Z,74.38
2019-02-05T11:09:25.459Z,74.42
2019-02-05T11:11:55.235Z,74.46
2019-02-05T11:14:24.972Z,74.52
2019-02-05T11:16:54.626Z,74.54
2019-02-05T11:19:24.236Z,74.48
2019-02-05T11:21:53.806Z,74.46
2019-02-05T11:24:23.391Z,74.50
2019-02-05T11:26:53.124Z,74.52
2019-02-05T11:29:22.736Z,74.43
2019-02-05T11:31:52.299Z,74.35
2019-02-05T11:34:22.353Z,74.26
2019-02-05T11:36:52.079Z,74.25
2019-02-05T11:39:21.714Z,74.26
2019-02-05T11:41:51.384Z,74.23
2019-02-05T11:44:21.011Z,74.29
2019-02-05T11:46:50.858Z,74.29
2019-02-05T11:49:20.427Z,74.22
2019-02-05T11:51:49.998Z,74.26
2019-02-05T11:54:19.587Z,74.22
2019-02-05T11:56:49.154Z,74.21
2019-02-05T11:59:18.820Z,74.23
2019-02-05T12:01:48.517Z,74.21
2019-02-05T12:04:18.197Z,74.22
2019-02-05T12:06:48.205Z,74.20
2019-02-05T12:09:20.570Z,74.31
2019-02-05T12:11:50.117Z,74.39
2019-02-05T12:14:19.749Z,74.45
2019-02-05T12:16:49.493Z,74.51
2019-02-05T12:19:19.127Z,74.55
2019-02-05T12:21:48.894Z,74.60
2019-02-05T12:24:18.595Z,74.73
2019-02-05T12:26:48.237Z,74.78
2019-02-05T12:29:17.830Z,74.82
2019-02-05T12:31:47.536Z,74.87
2019-02-05T12:34:17.204Z,74.85
2019-02-05T12:36:46.896Z,74.77
2019-02-05T12:39:19.065Z,74.67
2019-02-05T12:41:48.854Z,74.66
2019-02-05T12:44:18.495Z,74.69
2019-02-05T12:46:48.082Z,74.60
2019-02-05T12:49:17.646Z,74.51
2019-02-05T12:51:47.246Z,74.46
2019-02-05T12:54:17.147Z,74.37
2019-02-05T12:56:48.355Z,74.36
2019-02-05T12:59:17.991Z,74.31
2019-02-05T13:01:47.619Z,74.23
2019-02-05T13:04:17.209Z,74.17
2019-02-05T13:06:46.836Z,73.96
2019-02-05T13:09:16.562Z,73.89
2019-02-05T13:11:47.502Z,73.88
2019-02-05T13:14:17.098Z,73.99
2019-02-05T13:16:46.726Z,74.00
2019-02-05T13:19:16.428Z,74.07
2019-02-05T13:21:46.374Z,74.09
2019-02-05T13:24:16.773Z,74.18
2019-02-05T13:26:46.484Z,74.22
2019-02-05T13:29:16.045Z,74.30
2019-02-05T13:31:45.706Z,74.44
2019-02-05T13:34:15.452Z,74.62
2019-02-05T13:36:45.369Z,74.79
2019-02-05T13:39:15.062Z,74.91
2019-02-05T13:41:44.697Z,75.06
2019-02-05T13:44:14.366Z,75.22
2019-02-05T13:46:44.162Z,75.39
2019-02-05T13:49:14.191Z,75.55
2019-02-05T13:51:43.835Z,75.63
2019-02-05T13:54:13.568Z,75.70
2019-02-05T13:56:43.202Z,75.77
2019-02-05T13:59:12.772Z,75.80
2019-02-05T14:01:44.512Z,75.86
2019-02-05T14:04:13.727Z,75.88
2019-02-05T14:06:43.311Z,75.98
2019-02-05T14:09:13.504Z,76.09
2019-02-05T14:11:43.143Z,76.12
2019-02-05T14:14:12.866Z,76.15
2019-02-05T14:16:42.627Z,76.23
2019-02-05T14:19:12.502Z,76.32
2019-02-05T14:21:42.087Z,76.47
2019-02-05T14:24:11.679Z,76.50
2019-02-05T14:26:41.237Z,76.54
2019-02-05T14:29:10.836Z,76.62
2019-02-05T14:31:40.398Z,76.65
2019-02-05T14:34:11.516Z,76.70
2019-02-05T14:36:41.116Z,76.77
2019-02-05T14:39:11.183Z,76.88
2019-02-05T14:41:40.796Z,77.01
2019-02-05T14:44:10.433Z,77.02
2019-02-05T14:46:40.071Z,77.00
2019-02-05T14:49:10.156Z,77.02
2019-02-05T14:51:39.734Z,77.09
2019-02-05T14:54:09.391Z,77.19
2019-02-05T14:56:38.976Z,77.21
2019-02-05T14:59:08.828Z,77.36
2019-02-05T15:01:43.262Z,77.52
2019-02-05T15:04:10.629Z,77.64
2019-02-05T15:06:40.273Z,77.71
2019-02-05T15:09:10.373Z,77.84
2019-02-05T15:11:39.940Z,77.97
2019-02-05T15:14:09.727Z,78.08
2019-02-05T15:16:39.724Z,78.16
2019-02-05T15:19:09.361Z,78.21
2019-02-05T15:21:39.054Z,78.28
2019-02-05T15:24:08.796Z,78.30
2019-02-05T15:26:40.010Z,78.38
2019-02-05T15:29:09.617Z,78.50
2019-02-05T15:31:39.464Z,78.61
2019-02-05T15:34:10.853Z,78.71
2019-02-05T15:36:40.679Z,78.82
2019-02-05T15:39:13.285Z,78.96
2019-02-05T15:41:42.989Z,79.05
2019-02-05T15:44:13.323Z,79.20
2019-02-05T15:46:43.038Z,79.33
2019-02-05T15:49:14.168Z,79.51
2019-02-05T15:51:43.822Z,79.66
2019-02-05T15:54:13.477Z,79.80
2019-02-05T15:56:43.132Z,79.95
2019-02-05T15:59:12.806Z,80.01
2019-02-05T16:01:43.653Z,80.03
2019-02-05T16:04:14.532Z,80.01
2019-02-05T16:06:44.105Z,80.01
2019-02-05T16:09:14.339Z,80.02
2019-02-05T16:11:43.953Z,80.06
2019-02-05T16:14:13.622Z,80.07
2019-02-05T16:16:45.987Z,80.14
2019-02-05T16:19:15.545Z,80.17
2019-02-05T16:21:45.142Z,80.15
2019-02-05T16:24:14.773Z,80.16
2019-02-05T16:26:44.966Z,80.18
2019-02-05T16:29:14.589Z,80.24
2019-02-05T16:31:44.260Z,80.27
2019-02-05T16:34:13.852Z,80.33
2019-02-05T16:36:43.490Z,80.34
2019-02-05T16:39:13.226Z,80.33
2019-02-05T16:41:43.136Z,80.38
2019-02-05T16:44:12.773Z,80.44
2019-02-05T16:46:42.456Z,80.53
2019-02-05T16:49:12.154Z,80.57
2019-02-05T16:51:41.888Z,80.66
2019-02-05T16:54:11.471Z,80.72
2019-02-05T16:56:41.302Z,80.73
2019-02-05T16:59:10.879Z,80.80
2019-02-05T17:01:40.474Z,80.90
2019-02-05T17:04:10.119Z,80.96
2019-02-05T17:06:39.680Z,81.03
2019-02-05T17:09:13.502Z,81.09
2019-02-05T17:11:43.143Z,81.09
2019-02-05T17:14:13.169Z,81.10
2019-02-05T17:16:42.817Z,81.10
2019-02-05T17:19:12.451Z,81.08
2019-02-05T17:21:42.191Z,81.08
2019-02-05T17:24:11.838Z,81.08
2019-02-05T17:26:41.503Z,81.08
2019-02-05T17:29:11.063Z,81.03
2019-02-05T17:31:40.621Z,81.04
2019-02-05T17:34:10.273Z,81.04
2019-02-05T17:36:39.908Z,81.04
2019-02-05T17:39:12.278Z,80.91
2019-02-05T17:41:41.960Z,80.82
2019-02-05T17:44:11.512Z,80.85
2019-02-05T17:46:41.145Z,80.91
2019-02-05T17:49:12.193Z,80.92
2019-02-05T17:51:42.072Z,80.89
2019-02-05T17:54:11.905Z,80.94
2019-02-05T17:56:41.495Z,80.96
2019-02-05T17:59:11.126Z,80.96
2019-02-05T18:01:40.831Z,80.96
2019-02-05T18:04:10.448Z,80.98
2019-02-05T18:06:40.145Z,80.95
2019-02-05T18:09:10.337Z,80.91
2019-02-05T18:11:40.020Z,80.92
2019-02-05T18:14:09.710Z,80.96
2019-02-05T18:16:39.327Z,80.98
2019-02-05T18:19:09.064Z,81.02
2019-02-05T18:21:38.732Z,81.10
2019-02-05T18:24:09.177Z,81.12
2019-02-05T18:26:38.782Z,81.16
2019-02-05T18:29:08.491Z,81.21
2019-02-05T18:31:38.046Z,81.28
2019-02-05T18:34:08.132Z,81.38
2019-02-05T18:36:38.176Z,81.42
2019-02-05T18:39:09.385Z,81.38
2019-02-05T18:41:39.203Z,81.39
2019-02-05T18:44:08.848Z,81.46
2019-02-05T18:46:38.499Z,81.52
2019-02-05T18:49:08.082Z,81.67
2019-02-05T18:51:38.223Z,81.70
2019-02-05T18:54:07.958Z,81.74
2019-02-05T18:56:37.732Z,81.83
2019-02-05T18:59:07.311Z,81.85
2019-02-05T19:01:37.136Z,81.90
2019-02-05T19:04:06.868Z,81.87
2019-02-05T19:06:36.728Z,81.85
2019-02-05T19:09:10.997Z,81.82
2019-02-05T19:11:40.603Z,81.81
2019-02-05T19:14:10.171Z,81.82
2019-02-05T19:16:39.736Z,81.80
2019-02-05T19:19:15.182Z,81.80
2019-02-05T19:21:40.877Z,81.80
2019-02-05T19:24:12.154Z,81.77
2019-02-05T19:26:43.407Z,81.72
2019-02-05T19:29:18.976Z,81.69
2019-02-05T19:31:44.592Z,81.68
2019-02-05T19:34:14.220Z,81.72
2019-02-05T19:36:44.002Z,81.74
2019-02-05T19:39:13.637Z,81.71
2019-02-05T19:41:43.617Z,81.68
2019-02-05T19:44:13.277Z,81.66
2019-02-05T19:46:50.565Z,81.66
2019-02-05T19:49:22.246Z,81.62
2019-02-05T19:51:51.974Z,81.57
2019-02-05T19:54:43.494Z,81.48
2019-02-05T19:57:13.218Z,81.49
2019-02-05T19:59:43.143Z,81.53
2019-02-05T20:02:12.733Z,81.53
2019-02-05T20:04:43.936Z,81.53
2019-02-05T20:07:13.565Z,81.57
2019-02-05T20:09:43.152Z,81.59
2019-02-05T20:12:12.711Z,81.51
2019-02-05T20:14:42.267Z,81.49
2019-02-05T20:17:12.195Z,81.51
2019-02-05T20:19:41.826Z,81.49
2019-02-05T20:22:11.475Z,81.53
2019-02-05T20:24:41.466Z,81.62
2019-02-05T20:27:11.174Z,81.67
2019-02-05T20:29:40.736Z,81.71
2019-02-05T20:32:11.254Z,81.76
2019-02-05T20:34:41.029Z,81.79
2019-02-05T20:37:13.476Z,81.80
2019-02-05T20:39:43.171Z,81.83
2019-02-05T20:42:12.800Z,81.78
2019-02-05T20:44:42.388Z,81.70
2019-02-05T20:47:12.141Z,81.58
2019-02-05T20:49:41.822Z,81.52
2019-02-05T20:52:11.417Z,81.09
2019-02-05T20:54:41.112Z,81.02
2019-02-05T20:57:10.743Z,80.71
2019-02-05T20:59:40.364Z,80.68
2019-02-05T21:02:10.593Z,80.64
2019-02-05T21:04:48.724Z,80.62
2019-02-05T21:07:11.653Z,80.63
2019-02-05T21:09:42.260Z,80.61
2019-02-05T21:12:12.191Z,80.63
2019-02-05T21:14:41.892Z,80.64
2019-02-05T21:17:11.824Z,80.70
2019-02-05T21:19:41.422Z,80.79
2019-02-05T21:22:11.063Z,80.81
2019-02-05T21:24:40.649Z,80.87
2019-02-05T21:27:10.362Z,80.88
2019-02-05T21:29:40.468Z,80.94
2019-02-05T21:32:10.113Z,80.96
2019-02-05T21:34:40.230Z,80.95
2019-02-05T21:37:09.822Z,80.95
2019-02-05T21:39:39.406Z,80.92
2019-02-05T21:42:09.021Z,80.92
2019-02-05T21:44:38.710Z,80.95
2019-02-05T21:47:08.368Z,80.98
2019-02-05T21:49:37.967Z,81.04
2019-02-05T21:52:07.893Z,81.06
2019-02-05T21:54:37.743Z,81.00
2019-02-05T21:57:07.579Z,80.94
2019-02-05T21:59:37.633Z,80.92
2019-02-05T22:02:07.637Z,80.85
2019-02-05T22:04:37.959Z,80.82
2019-02-05T22:07:08.021Z,80.78
2019-02-05T22:09:38.150Z,80.68
2019-02-05T22:12:08.132Z,80.62
2019-02-05T22:14:38.256Z,80.61
2019-02-05T22:17:08.262Z,80.61
2019-02-05T22:19:37.827Z,80.69
2019-02-05T22:22:07.562Z,80.71
2019-02-05T22:24:37.301Z,80.78
2019-02-05T22:27:07.421Z,80.83
2019-02-05T22:29:36.990Z,80.78
2019-02-05T22:32:06.720Z,80.75
2019-02-05T22:34:39.421Z,80.77
2019-02-05T22:37:07.691Z,80.81
2019-02-05T22:39:37.677Z,80.83
2019-02-05T22:42:07.587Z,80.83
2019-02-05T22:44:37.203Z,80.88
2019-02-05T22:47:06.850Z,80.97
2019-02-05T22:49:36.491Z,81.03
2019-02-05T22:52:06.227Z,81.01
2019-02-05T22:54:35.937Z,80.98
2019-02-05T22:57:05.675Z,80.95
2019-02-05T22:59:35.530Z,80.89
2019-02-05T23:02:07.044Z,80.83
2019-02-05T23:04:37.871Z,80.83
2019-02-05T23:07:11.560Z,80.78
2019-02-05T23:09:48.564Z,80.74
2019-02-05T23:12:29.008Z,80.71
2019-02-05T23:15:03.903Z,80.64
2019-02-05T23:17:33.515Z,80.54
2019-02-05T23:20:03.181Z,80.47
2019-02-05T23:22:33.072Z,80.42
2019-02-05T23:25:02.984Z,80.41
2019-02-05T23:27:32.557Z,80.36
2019-02-05T23:30:02.311Z,80.37
2019-02-05T23:32:31.951Z,80.36
2019-02-05T23:35:02.646Z,80.32
2019-02-05T23:37:32.428Z,80.32
2019-02-05T23:40:02.437Z,80.33
2019-02-05T23:42:32.052Z,80.33
2019-02-05T23:45:01.698Z,80.30
2019-02-05T23:47:31.572Z,80.32
2019-02-05T23:50:01.296Z,80.30
2019-02-05T23:52:31.108Z,80.27
2019-02-05T23:55:01.404Z,80.22
2019-02-05T23:57:31.002Z,80.16
